Hovedside
METAR-TAF:

METAR-TAF

Lufthavner :

Trondheim, Norge

Trondheim lufthavn. Værnes

breddegrad: 63-28N, lengdegrad: 010-56E, høyde over havet: 1 m

Gjeldene værobservasjon

Denne rapporten ble laget for 31 minutter siden, klokken 13:20 UTC
Vind 10 kt fra Øst-sørøst
Temperatur -4°C
Luftfuktighet 54%
Trykk 1040 hPa
Sikt 10 km eller mer
ingen skyer under 1500 m og ingen bygeskyer

METAR: ENVA 251320Z 12010KT CAVOK M04/M12 Q1040 NOSIG RMK WIND 670FT 15014KT

Tid: 14:51 (13:51 UTC)

Varsel

Varsel gyldig fra 25. klokken 12 UTC til 26. klokken 12 UTC
Vind 8 kt fra Øst-sørøst
Sikt 10 km eller mer
Få skyer i en høyde av 2000 ft
Spredte skyer i en høyde av 6000 ft

TAF: ENVA 2512/2612 11008KT 9999 FEW020 SCT060

Værobservasjoner og værvarsel for over 4000 flyplasser (METAR- og TAF-rapporter).

Tilgjengelige stasjoner er representert av de røde og gule prikkene på kartet.

Hold musepekeren over prikken for å se navnet på stasjonen.

Klikk så for å se værobservasjoner og -varsler.

For å forandre kartet kan du klikke på den grønne knappen med svart kryss for å zoome inn, på den grønne knappen med strek for å zoome ut, eller på de grønne pilene for å se tilstøtende kart.


METAR-TAF: